Time;durP1;ratioP1;P1;durP2;ratioP2;P2;SDS_P1;SDS_P2;PMS_P1;PMS_P2;Temp;Humidity;BMP_temperature;BMP_pressure;BME280_temperature;BME280_humidity;BME280_pressure;Samples;Min_cycle;Max_cycle;Signal;HPM_P1;HPM_P2
2022/06/21 00:02:10;;;;;;;21.83;4.37;;;;;;;16.15;61.10;98603.03;5023859;28;20491;-69
2022/06/21 00:04:36;;;;;;;20.13;4.40;;;;;;;16.14;61.11;98604.97;5026906;28;20513;-70
2022/06/21 00:07:05;;;;;;;17.52;3.90;;;;;;;16.15;61.38;98608.53;5026767;28;20095;-70
2022/06/21 00:09:31;;;;;;;22.30;3.58;;;;;;;16.16;61.02;98607.38;5031227;28;20107;-77
2022/06/21 00:11:57;;;;;;;13.20;4.10;;;;;;;16.17;60.93;98606.25;5028067;28;20041;-77
2022/06/21 00:14:25;;;;;;;19.63;4.35;;;;;;;16.17;60.85;98609.00;5009760;28;20271;-77
2022/06/21 00:16:52;;;;;;;22.83;4.32;;;;;;;16.14;60.85;98602.19;5011652;28;20052;-76
2022/06/21 00:19:21;;;;;;;18.17;4.13;;;;;;;16.15;60.87;98609.31;5026647;28;20057;-78
2022/06/21 00:21:48;;;;;;;24.02;3.80;;;;;;;16.14;61.08;98607.72;5027449;28;20045;-77
2022/06/21 00:24:18;;;;;;;12.30;3.60;;;;;;;16.13;61.03;98605.31;4996120;28;20045;-77
2022/06/21 00:26:45;;;;;;;16.00;4.15;;;;;;;16.12;61.11;98596.22;5024669;28;20111;-76
2022/06/21 00:29:12;;;;;;;17.17;3.63;;;;;;;16.14;60.81;98593.16;5027939;28;20135;-77
2022/06/21 00:31:47;;;;;;;20.35;5.00;;;;;;;16.13;61.09;98589.56;5028079;28;20052;-77
2022/06/21 00:34:16;;;;;;;14.13;4.32;;;;;;;16.12;61.03;98587.97;5024077;28;20091;-77
2022/06/21 00:36:44;;;;;;;24.50;4.72;;;;;;;16.12;61.06;98590.72;5025109;28;20056;-77
2022/06/21 00:39:11;;;;;;;;;;;;;;;16.09;61.15;98585.88;5009954;28;20096;-77
2022/06/21 00:41:42;;;;;;;13.93;4.00;;;;;;;16.09;61.75;98585.09;5027943;28;19936;-75
2022/06/21 00:44:13;;;;;;;24.88;4.18;;;;;;;16.09;62.26;98583.13;5025358;28;20050;-76
2022/06/21 00:46:43;;;;;;;24.85;4.80;;;;;;;16.07;62.72;98581.84;5024177;28;20049;-77
2022/06/21 00:49:17;;;;;;;22.33;4.93;;;;;;;16.06;62.85;98574.72;5026119;28;20057;-77
2022/06/21 00:51:43;;;;;;;25.73;6.55;;;;;;;16.04;63.13;98577.03;5006424;28;20140;-77
2022/06/21 00:54:16;;;;;;;18.75;4.82;;;;;;;15.96;63.68;98573.22;5026079;28;20313;-76
2022/06/21 00:56:51;;;;;;;19.48;5.53;;;;;;;15.97;63.60;98580.34;5025686;28;20470;-77
2022/06/21 00:59:21;;;;;;;23.52;5.25;;;;;;;15.94;63.81;98579.09;5023301;28;20136;-77
2022/06/21 01:01:50;;;;;;;23.27;5.30;;;;;;;15.89;63.84;98573.78;5024831;28;20073;-77
2022/06/21 01:04:21;;;;;;;24.73;5.00;;;;;;;15.89;64.73;98587.56;5022357;28;20584;-76
2022/06/21 01:06:51;;;;;;;26.02;5.85;;;;;;;15.84;65.19;98588.56;5024369;28;20045;-77
2022/06/21 01:09:23;;;;;;;19.10;5.70;;;;;;;15.83;65.33;98595.19;5025701;28;20103;-76
2022/06/21 01:11:55;;;;;;;21.88;5.72;;;;;;;15.79;65.61;98596.25;5022168;28;20053;-76
2022/06/21 01:14:24;;;;;;;23.38;5.20;;;;;;;15.82;64.96;98606.59;5024555;28;20106;-76
2022/06/21 01:16:52;;;;;;;22.92;5.22;;;;;;;15.82;65.23;98604.63;5025067;28;20065;-78
2022/06/21 01:19:29;;;;;;;17.67;4.95;;;;;;;15.84;65.10;98601.53;5028072;28;20409;-76
2022/06/21 01:22:01;;;;;;;20.88;4.85;;;;;;;15.86;65.21;98590.97;5029653;28;20512;-77
2022/06/21 01:24:36;;;;;;;16.75;4.93;;;;;;;15.87;65.77;98573.28;5024395;28;20527;-75
2022/06/21 01:27:04;;;;;;;22.42;5.35;;;;;;;15.87;65.52;98565.84;5024226;28;20057;-74
2022/06/21 01:29:33;;;;;;;30.27;5.28;;;;;;;15.87;65.57;98546.53;5008627;28;20061;-77
2022/06/21 01:32:02;;;;;;;21.60;5.03;;;;;;;15.89;65.55;98543.47;5027239;28;20060;-76
2022/06/21 01:34:29;;;;;;;19.77;5.38;;;;;;;15.84;65.71;98529.88;5024531;28;20058;-68
2022/06/21 01:37:00;;;;;;;17.75;5.47;;;;;;;15.90;65.70;98525.00;5026021;28;20539;-70
2022/06/21 01:39:32;;;;;;;31.05;7.05;;;;;;;15.91;65.76;98519.13;5017287;28;20089;-76
2022/06/21 01:42:03;;;;;;;25.98;6.55;;;;;;;15.93;66.02;98516.03;5021419;28;20037;-77
2022/06/21 01:44:34;;;;;;;26.23;6.40;;;;;;;15.90;66.45;98505.69;5024225;28;20215;-75
2022/06/21 01:47:02;;;;;;;32.10;7.10;;;;;;;15.91;66.81;98502.56;5023928;28;20127;-77
2022/06/21 01:49:32;;;;;;;25.10;6.35;;;;;;;15.88;66.81;98492.22;5023849;28;20600;-76
2022/06/21 01:52:02;;;;;;;22.27;6.72;;;;;;;15.89;66.99;98499.38;5024143;28;20052;-77
2022/06/21 01:54:34;;;;;;;28.77;6.40;;;;;;;15.90;66.80;98503.72;5024617;28;20085;-77
2022/06/21 01:57:00;;;;;;;30.27;6.13;;;;;;;15.92;67.00;98495.94;5025959;28;20041;-76
2022/06/21 01:59:31;;;;;;;19.77;5.13;;;;;;;15.94;66.66;98496.41;5023715;28;20045;-75
2022/06/21 02:02:01;;;;;;;20.33;6.03;;;;;;;15.95;66.45;98509.03;5006936;28;20136;-76
2022/06/21 02:04:32;;;;;;;23.35;5.13;;;;;;;15.96;66.58;98507.06;5022848;28;20056;-74
2022/06/21 02:07:02;;;;;;;19.75;4.90;;;;;;;15.95;66.43;98498.00;5024090;28;20137;-77
2022/06/21 02:09:34;;;;;;;24.27;5.78;;;;;;;15.95;66.13;98503.53;5023619;28;20527;-76
2022/06/21 02:12:03;;;;;;;21.60;5.60;;;;;;;15.94;66.30;98504.69;5022463;28;20072;-77
2022/06/21 02:14:34;;;;;;;15.45;4.93;;;;;;;15.95;66.15;98506.28;5023466;28;20424;-77
2022/06/21 02:17:18;;;;;;;19.17;5.18;;;;;;;15.94;66.48;98510.19;5023254;28;20057;-76
2022/06/21 02:19:48;;;;;;;19.13;4.88;;;;;;;16.00;66.34;98519.84;5022070;28;20669;-69
2022/06/21 02:22:17;;;;;;;19.98;5.25;;;;;;;15.98;66.63;98524.88;5026904;28;20722;-71
2022/06/21 02:24:44;;;;;;;18.67;5.18;;;;;;;15.94;67.24;98529.47;5021535;28;20041;-70
2022/06/21 02:27:13;;;;;;;28.30;5.57;;;;;;;15.95;67.50;98533.03;5024614;28;20065;-69
2022/06/21 02:29:41;;;;;;;22.38;6.13;;;;;;;15.96;67.87;98538.22;5023120;28;20083;-68
2022/06/21 02:32:18;;;;;;;16.13;5.60;;;;;;;15.92;67.80;98533.72;5026598;28;20145;-70
2022/06/21 02:34:47;;;;;;;15.13;5.40;;;;;;;15.92;68.37;98537.28;5024409;28;20690;-69
2022/06/21 02:37:15;;;;;;;22.80;6.05;;;;;;;15.88;68.40;98534.38;5024541;28;20473;-69
2022/06/21 02:39:43;;;;;;;24.90;5.40;;;;;;;15.84;68.67;98533.44;5004488;28;20119;-69
2022/06/21 02:42:17;;;;;;;20.80;5.60;;;;;;;15.82;67.99;98543.19;5017093;28;20507;-69
2022/06/21 02:44:47;;;;;;;22.98;5.85;;;;;;;15.82;68.72;98549.50;5022796;28;20512;-69
2022/06/21 02:47:20;;;;;;;24.77;6.55;;;;;;;15.82;69.19;98548.72;5023156;28;20203;-70
2022/06/21 02:49:49;;;;;;;20.63;5.38;;;;;;;15.79;69.54;98549.41;5024532;28;20048;-68
2022/06/21 02:52:22;;;;;;;21.08;5.20;;;;;;;15.76;69.91;98548.13;5021748;28;20053;-70
2022/06/21 02:54:58;;;;;;;23.08;6.93;;;;;;;15.77;70.14;98546.97;5022270;28;20057;-69
2022/06/21 02:57:28;;;;;;;26.02;5.85;;;;;;;15.77;70.57;98551.69;5024223;28;20057;-76
2022/06/21 02:59:56;;;;;;;16.90;5.35;;;;;;;15.78;69.77;98550.53;5023204;28;20954;-70
2022/06/21 03:02:26;;;;;;;21.00;5.22;;;;;;;15.71;69.36;98542.84;5005037;28;20164;-70
2022/06/21 03:04:56;;;;;;;27.35;5.93;;;;;;;15.79;69.89;98552.16;5003112;28;20140;-70
2022/06/21 03:07:24;;;;;;;19.15;5.22;;;;;;;15.79;70.38;98546.63;5023355;28;20095;-71
2022/06/21 03:09:51;;;;;;;23.88;6.03;;;;;;;15.81;71.07;98541.59;5021309;28;20164;-77
2022/06/21 03:12:19;;;;;;;;;;;;;;;15.81;71.33;98549.84;5012548;28;20041;-76
2022/06/21 03:14:48;;;;;;;22.23;6.20;;;;;;;15.76;71.15;98544.53;5018205;28;19955;-76
2022/06/21 03:17:17;;;;;;;24.95;6.70;;;;;;;15.62;71.54;98540.16;5004577;28;20050;-75
2022/06/21 03:19:49;;;;;;;24.33;7.50;;;;;;;15.55;71.98;98537.13;5023455;28;20140;-75
2022/06/21 03:22:18;;;;;;;18.58;6.22;;;;;;;15.47;72.06;98536.06;5021623;28;20068;-76
2022/06/21 03:24:46;;;;;;;27.83;7.47;;;;;;;15.41;71.76;98541.00;5022272;28;20049;-76
2022/06/21 03:27:26;;;;;;;28.42;6.13;;;;;;;15.36;70.99;98538.44;5022674;28;20600;-76
2022/06/21 03:29:53;;;;;;;26.08;5.90;;;;;;;15.32;70.70;98532.81;5004251;28;20517;-76
2022/06/21 03:32:19;;;;;;;;;;;;;;;15.27;70.49;98534.97;5024792;28;20053;-76
2022/06/21 03:34:47;;;;;;;18.65;5.65;;;;;;;15.24;70.36;98530.13;5025203;28;19936;-76
2022/06/21 03:37:14;;;;;;;25.02;5.85;;;;;;;15.22;70.95;98526.91;5003670;28;20575;-77
2022/06/21 03:42:29;;;;;;;19.38;5.53;;;;;;;15.23;71.71;98520.25;5024046;28;20045;-77
2022/06/21 03:45:01;;;;;;;25.08;6.35;;;;;;;15.26;72.41;98520.41;5031723;28;20139;-75
2022/06/21 03:47:35;;;;;;;20.35;5.63;;;;;;;15.22;71.65;98516.72;5023284;28;20129;-77
2022/06/21 03:50:07;;;;;;;23.55;7.15;;;;;;;15.23;71.19;98521.09;5022321;28;20140;-77
2022/06/21 03:52:42;;;;;;;18.10;6.05;;;;;;;15.22;71.01;98522.22;5040392;28;20496;-77
2022/06/21 03:55:21;;;;;;;19.05;7.13;;;;;;;15.23;70.73;98523.00;5041172;28;20147;-76
2022/06/21 03:57:53;;;;;;;21.70;7.15;;;;;;;15.28;70.94;98520.88;5043332;28;20064;-76
2022/06/21 04:00:19;;;;;;;19.85;7.47;;;;;;;15.26;71.02;98514.06;5017998;28;20085;-76
2022/06/21 04:02:52;;;;;;;29.40;8.17;;;;;;;15.36;70.86;98516.41;5020551;28;20112;-77
2022/06/21 04:05:25;;;;;;;24.90;7.25;;;;;;;15.45;70.22;98508.91;5022142;28;20395;-76
2022/06/21 04:07:55;;;;;;;20.08;6.93;;;;;;;15.57;69.75;98505.38;5043492;28;20131;-76
2022/06/21 04:10:26;;;;;;;26.98;7.63;;;;;;;15.67;69.31;98504.13;5040353;28;20076;-77
2022/06/21 04:12:56;;;;;;;27.80;7.97;;;;;;;15.73;68.84;98493.69;5030330;28;20049;-77
2022/06/21 04:15:29;;;;;;;19.23;7.15;;;;;;;15.81;68.99;98495.53;5035746;28;20041;-71
2022/06/21 04:18:01;;;;;;;23.13;7.43;;;;;;;15.88;68.85;98495.78;4677807;28;10000099;-71
2022/06/21 04:20:33;;;;;;;23.50;8.20;;;;;;;15.95;68.39;98480.66;5037728;28;20053;-70
2022/06/21 04:23:06;;;;;;;20.92;7.30;;;;;;;16.08;67.29;98492.50;5005187;28;20053;-72
2022/06/21 04:25:39;;;;;;;23.80;7.72;;;;;;;16.14;66.87;98493.88;5024227;28;20049;-70
2022/06/21 04:28:10;;;;;;;16.67;8.13;;;;;;;16.22;67.79;98490.19;5020020;28;20466;-77
2022/06/21 04:30:43;;;;;;;24.08;9.85;;;;;;;16.22;68.04;98481.94;5024715;28;20076;-77
2022/06/21 04:33:13;;;;;;;23.10;8.75;;;;;;;16.22;67.99;98483.91;5022843;28;20119;-76
2022/06/21 04:35:49;;;;;;;29.40;11.52;;;;;;;16.19;68.08;98482.63;5022745;28;20045;-77
2022/06/21 04:38:22;;;;;;;29.15;10.30;;;;;;;16.14;68.22;98477.34;5019739;28;20080;-77
2022/06/21 04:40:59;;;;;;;29.23;9.95;;;;;;;16.14;67.97;98477.34;5022087;28;20428;-77
2022/06/21 04:43:30;;;;;;;27.52;10.27;;;;;;;16.15;67.91;98468.72;5035194;28;20075;-76
2022/06/21 04:46:02;;;;;;;31.90;10.23;;;;;;;16.15;68.11;98465.16;5037910;28;20212;-77
2022/06/21 04:48:34;;;;;;;24.23;9.73;;;;;;;16.11;67.60;98464.25;5030088;28;20037;-77
2022/06/21 04:51:08;;;;;;;39.58;10.30;;;;;;;16.10;67.87;98465.41;5043641;28;20057;-77
2022/06/21 04:53:43;;;;;;;33.80;10.68;;;;;;;16.13;68.09;98453.69;5047658;28;20059;-78
2022/06/21 04:56:15;;;;;;;39.05;10.55;;;;;;;16.15;67.59;98454.13;5049442;28;20072;-77
2022/06/21 04:58:43;;;;;;;30.25;10.43;;;;;;;16.19;67.88;98448.75;5047183;28;20064;-77
2022/06/21 05:01:53;;;;;;;31.85;10.95;;;;;;;16.28;68.08;98443.91;5041146;28;20099;-71
2022/06/21 05:04:04;;;;;;;37.33;10.55;;;;;;;16.34;67.94;98449.97;5032297;28;20045;-70
2022/06/21 05:06:33;;;;;;;35.47;11.25;;;;;;;16.37;68.29;98452.88;5039416;28;20055;-71
2022/06/21 05:08:59;;;;;;;28.08;10.30;;;;;;;16.45;68.14;98456.66;5038718;28;20045;-70
2022/06/21 05:11:26;;;;;;;32.47;11.02;;;;;;;16.47;67.88;98462.63;5021124;28;20308;-71
2022/06/21 05:13:55;;;;;;;30.55;10.20;;;;;;;16.49;67.21;98465.03;5028423;28;20049;-71
2022/06/21 05:16:27;;;;;;;31.98;9.38;;;;;;;16.51;66.56;98463.53;5016598;28;20052;-71
2022/06/21 05:18:58;;;;;;;28.65;9.82;;;;;;;16.68;66.04;98464.41;5018655;28;20057;-70
2022/06/21 05:21:31;;;;;;;28.30;9.35;;;;;;;16.82;66.16;98469.56;5019401;28;20057;-68
2022/06/21 05:24:00;;;;;;;30.15;9.70;;;;;;;17.05;65.29;98466.28;5029166;28;20433;-70
2022/06/21 05:26:33;;;;;;;31.33;9.50;;;;;;;17.25;65.09;98453.44;5030687;28;20094;-72
2022/06/21 05:29:05;;;;;;;28.85;9.85;;;;;;;17.34;64.53;98464.31;5036674;28;20045;-70
2022/06/21 05:31:37;;;;;;;34.10;9.45;;;;;;;17.49;63.94;98460.00;5043038;28;20451;-70
2022/06/21 05:34:10;;;;;;;26.48;8.80;;;;;;;17.57;63.66;98467.31;5032399;28;20175;-71
2022/06/21 05:36:41;;;;;;;25.27;8.57;;;;;;;17.57;63.93;98459.84;5027817;28;20053;-71
2022/06/21 05:39:20;;;;;;;29.85;9.18;;;;;;;17.58;63.67;98458.69;5025997;28;20053;-70
2022/06/21 05:41:50;;;;;;;28.38;8.55;;;;;;;17.52;63.00;98453.78;5043577;28;20048;-70
2022/06/21 05:44:21;;;;;;;21.98;7.38;;;;;;;17.34;63.25;98447.75;5046047;28;20044;-71
2022/06/21 05:46:50;;;;;;;20.42;7.95;;;;;;;17.27;62.64;98465.75;5046883;28;20080;-70
2022/06/21 05:49:21;;;;;;;32.42;9.60;;;;;;;17.44;62.44;98461.06;5043274;28;20052;-71
2022/06/21 05:51:49;;;;;;;32.17;9.25;;;;;;;17.67;62.16;98452.16;5043617;28;20065;-70
2022/06/21 05:54:18;;;;;;;;;;;;;;;17.86;61.47;98454.22;5045270;28;20130;-71
2022/06/21 05:56:45;;;;;;;29.02;9.75;;;;;;;17.90;59.86;98463.41;5044708;28;19974;-71
2022/06/21 05:59:14;;;;;;;35.40;9.23;;;;;;;17.92;59.70;98455.56;5045913;28;20098;-69
2022/06/21 06:01:47;;;;;;;29.55;10.32;;;;;;;17.97;59.53;98454.50;5043506;28;20045;-70
2022/06/21 06:04:18;;;;;;;36.15;10.63;;;;;;;18.10;59.65;98450.50;5043145;28;20052;-69
2022/06/21 06:06:47;;;;;;;39.00;11.32;;;;;;;18.26;59.07;98447.72;5045740;28;20470;-70
2022/06/21 06:09:19;;;;;;;41.05;12.10;;;;;;;18.43;58.88;98445.72;5046288;28;20049;-71
2022/06/21 06:12:02;;;;;;;35.13;11.82;;;;;;;18.46;58.24;98427.59;5039579;28;20057;-71
2022/06/21 06:14:37;;;;;;;40.22;13.68;;;;;;;18.82;57.94;98442.22;5039320;28;20088;-71
2022/06/21 06:17:19;;;;;;;43.33;14.75;;;;;;;19.01;56.96;98441.44;5029159;28;20132;-71
2022/06/21 06:19:51;;;;;;;58.50;15.43;;;;;;;19.08;56.35;98457.38;5033851;28;20198;-70
2022/06/21 06:22:24;;;;;;;63.35;17.35;;;;;;;18.83;57.24;98447.38;5042379;28;20398;-71
2022/06/21 06:25:06;;;;;;;52.80;15.70;;;;;;;18.71;57.84;98444.72;5024879;28;20049;-70
2022/06/21 06:27:45;;;;;;;58.92;16.92;;;;;;;18.61;58.09;98453.63;5036329;28;20065;-71
2022/06/21 06:30:16;;;;;;;59.92;15.75;;;;;;;18.39;58.44;98444.81;5050390;28;20524;-71
2022/06/21 06:32:50;;;;;;;63.20;15.18;;;;;;;18.21;58.90;98441.66;5049568;28;20052;-71
2022/06/21 06:35:23;;;;;;;47.63;14.38;;;;;;;18.19;59.65;98444.78;5050891;28;20053;-70
2022/06/21 06:37:49;;;;;;;42.03;12.55;;;;;;;18.17;59.34;98446.28;5044006;28;20056;-70
2022/06/21 06:40:22;;;;;;;38.38;10.82;;;;;;;18.13;58.92;98449.78;5042686;28;20191;-70
2022/06/21 06:42:56;;;;;;;37.85;10.50;;;;;;;17.62;58.92;98375.06;5045154;28;20045;-71
2022/06/21 06:45:29;;;;;;;28.65;8.95;;;;;;;18.11;58.86;98457.63;5045530;28;20069;-71
2022/06/21 06:48:06;;;;;;;29.48;7.70;;;;;;;17.98;58.40;98456.91;5051669;28;20048;-70
2022/06/21 06:50:37;;;;;;;25.40;8.63;;;;;;;17.84;58.53;98459.31;5043510;28;20519;-77
2022/06/21 06:53:08;;;;;;;35.75;8.18;;;;;;;17.82;58.79;98456.91;5055254;28;20036;-77
2022/06/21 06:55:40;;;;;;;32.22;8.73;;;;;;;17.99;58.71;98449.41;5058173;28;20079;-69
2022/06/21 06:58:16;;;;;;;24.17;8.60;;;;;;;18.19;57.98;98455.84;5046747;28;20407;-69
2022/06/21 07:00:47;;;;;;;27.20;9.57;;;;;;;18.23;57.97;98459.50;5045538;28;20052;-70
2022/06/21 07:03:17;;;;;;;31.00;10.82;;;;;;;18.12;58.36;98461.22;5043716;28;20512;-70
2022/06/21 07:05:49;;;;;;;38.58;11.27;;;;;;;17.89;59.54;98475.63;5043541;28;20131;-69
2022/06/21 07:08:26;;;;;;;33.70;10.50;;;;;;;17.66;60.43;98467.16;5047435;28;20072;-69
2022/06/21 07:10:57;;;;;;;40.10;10.32;;;;;;;17.63;60.43;98463.13;5048247;28;20048;-70
2022/06/21 07:13:24;;;;;;;31.65;10.60;;;;;;;17.64;60.13;98458.41;5063943;28;20063;-69
2022/06/21 07:15:52;;;;;;;35.72;10.88;;;;;;;17.54;60.56;98454.22;5053266;28;20099;-68
2022/06/21 07:18:27;;;;;;;30.65;11.77;;;;;;;17.48;60.67;98448.13;5042981;28;20049;-69
2022/06/21 07:20:53;;;;;;;33.47;11.30;;;;;;;17.51;60.98;98443.88;5054661;28;20419;-69
2022/06/21 07:23:23;;;;;;;46.33;12.07;;;;;;;17.53;61.00;98430.50;5061040;28;20542;-69
2022/06/21 07:25:53;;;;;;;37.92;10.50;;;;;;;17.52;60.91;98432.44;5043731;28;20063;-69
2022/06/21 07:28:27;;;;;;;62.70;12.52;;;;;;;17.54;61.12;98432.09;5045458;28;20064;-69
2022/06/21 07:30:58;;;;;;;30.38;11.63;;;;;;;17.51;60.98;98441.91;5044922;28;20049;-69
2022/06/21 07:33:30;;;;;;;29.65;11.13;;;;;;;17.46;61.56;98439.41;5047702;28;20049;-69
2022/06/21 07:36:01;;;;;;;30.45;11.57;;;;;;;17.53;61.14;98427.75;5045848;28;20083;-69
2022/06/21 07:38:33;;;;;;;47.47;12.07;;;;;;;17.59;61.00;98429.06;5030336;28;21575;-69
2022/06/21 07:41:05;;;;;;;30.45;10.95;;;;;;;17.64;60.80;98434.34;5059353;28;20144;-69
2022/06/21 07:43:39;;;;;;;31.67;11.05;;;;;;;17.63;60.99;98432.72;5059012;28;20102;-70
2022/06/21 07:46:09;;;;;;;38.53;10.93;;;;;;;17.64;61.05;98442.66;5047293;28;20056;-69
2022/06/21 07:48:40;;;;;;;36.97;12.55;;;;;;;17.60;61.12;98433.44;5044634;28;20061;-75
2022/06/21 07:51:11;;;;;;;41.60;11.27;;;;;;;17.47;61.81;98429.97;5011413;28;20080;-76
2022/06/21 07:53:44;;;;;;;34.72;12.10;;;;;;;17.35;62.37;98422.56;5043196;28;20704;-76
2022/06/21 07:56:15;;;;;;;31.65;11.85;;;;;;;17.27;62.30;98420.75;4708990;28;9999911;-75
2022/06/21 07:58:48;;;;;;;30.60;11.23;;;;;;;17.22;62.72;98410.75;5061396;28;20037;-75
2022/06/21 08:07:03;;;;;;;37.28;12.88;;;;;;;17.57;62.88;98426.69;5049366;28;20045;-70
2022/06/21 08:09:36;;;;;;;36.03;12.27;;;;;;;17.44;63.00;98403.03;5050873;28;20041;-69
2022/06/21 08:12:03;;;;;;;34.65;11.25;;;;;;;17.51;63.74;98419.00;5050508;28;20469;-69
2022/06/21 08:14:33;;;;;;;31.92;11.32;;;;;;;17.52;63.92;98426.13;5047831;28;20102;-69
2022/06/21 08:17:05;;;;;;;37.83;12.15;;;;;;;17.48;64.28;98431.56;5050336;28;20555;-69
2022/06/21 08:19:37;;;;;;;34.55;11.38;;;;;;;17.46;64.52;98425.59;5046567;28;20057;-69
2022/06/21 08:22:10;;;;;;;29.70;11.35;;;;;;;17.41;64.30;98423.88;5046881;28;20103;-69
2022/06/21 08:24:43;;;;;;;30.38;10.50;;;;;;;17.40;63.86;98425.03;5043783;28;20601;-69
2022/06/21 08:27:17;;;;;;;32.03;11.93;;;;;;;17.40;64.22;98429.75;5049615;28;20057;-69
2022/06/21 08:29:50;;;;;;;40.25;14.48;;;;;;;17.38;64.70;98432.06;5048975;28;20048;-69
2022/06/21 08:32:24;;;;;;;41.08;12.40;;;;;;;17.23;65.06;98417.09;5047924;28;20057;-76
2022/06/21 08:34:54;;;;;;;36.35;11.38;;;;;;;17.25;64.53;98428.59;5048533;28;20574;-76
2022/06/21 08:37:28;;;;;;;40.28;12.45;;;;;;;17.22;64.86;98427.31;5048341;28;20087;-76
2022/06/21 08:40:00;;;;;;;47.95;14.10;;;;;;;17.19;64.43;98433.56;5050837;28;20064;-76
2022/06/21 08:42:55;;;;;;;43.13;13.65;;;;;;;17.17;64.69;98430.34;5048657;28;20673;-75
2022/06/21 08:46:02;;;;;;;40.00;13.93;;;;;;;17.14;64.60;98417.25;5047914;28;20374;-75
2022/06/21 08:49:13;;;;;;;51.40;13.43;;;;;;;17.10;64.49;98421.88;5008597;28;20056;-75
2022/06/21 08:52:00;;;;;;;38.40;13.02;;;;;;;17.04;64.94;98421.31;5047228;28;20186;-76
2022/06/21 08:54:38;;;;;;;37.75;12.85;;;;;;;16.98;65.46;98419.91;5047227;28;20060;-76
2022/06/21 08:57:13;;;;;;;34.33;13.73;;;;;;;17.04;65.09;98421.31;5044649;28;20531;-76
2022/06/21 08:59:54;;;;;;;38.60;13.90;;;;;;;17.03;65.06;98418.91;5025962;28;20056;-75
2022/06/21 09:02:34;;;;;;;42.92;14.85;;;;;;;17.00;64.93;98426.75;5045488;28;20056;-76
2022/06/21 09:05:13;;;;;;;39.08;14.05;;;;;;;17.06;65.40;98407.97;5045189;28;20079;-76
2022/06/21 09:08:03;;;;;;;48.13;13.35;;;;;;;17.12;65.05;98411.28;5042018;28;20041;-75
2022/06/21 09:10:42;;;;;;;37.30;13.38;;;;;;;17.17;65.62;98410.19;5045740;28;20045;-68
2022/06/21 09:13:31;;;;;;;40.00;13.50;;;;;;;17.20;66.29;98410.31;5044440;28;20044;-69
2022/06/21 09:16:08;;;;;;;43.63;13.23;;;;;;;17.24;65.67;98415.94;5041776;28;20083;-69
2022/06/21 09:18:48;;;;;;;38.90;13.43;;;;;;;17.27;65.29;98418.78;5045212;28;20507;-70
2022/06/21 09:21:25;;;;;;;49.33;13.98;;;;;;;17.27;65.06;98416.03;5028781;28;20045;-69
2022/06/21 09:23:59;;;;;;;40.33;13.90;;;;;;;17.15;65.20;98414.13;5043372;28;20045;-69
2022/06/21 09:26:33;;;;;;;42.38;14.70;;;;;;;17.10;65.29;98424.63;5058982;28;20056;-69
2022/06/21 09:29:11;;;;;;;41.15;14.35;;;;;;;17.06;65.45;98420.97;5028791;28;20052;-69
2022/06/21 09:31:51;;;;;;;40.90;14.93;;;;;;;17.03;65.45;98422.47;5040210;28;20045;-69
2022/06/21 09:34:28;;;;;;;45.10;14.60;;;;;;;16.95;65.19;98421.44;5043186;28;20045;-69
2022/06/21 09:37:00;;;;;;;49.15;15.85;;;;;;;16.96;65.83;98430.53;5043681;28;20139;-69
2022/06/21 09:39:31;;;;;;;38.67;15.65;;;;;;;17.00;65.38;98434.19;5058176;28;20541;-70
2022/06/21 09:42:04;;;;;;;35.00;14.63;;;;;;;17.03;65.74;98429.94;5046153;28;20048;-70
2022/06/21 09:44:37;;;;;;;42.95;15.70;;;;;;;17.07;66.86;98417.03;5062848;28;20532;-69
2022/06/21 09:47:15;;;;;;;51.42;14.98;;;;;;;17.09;68.59;98421.06;5063942;28;20044;-69
2022/06/21 09:49:50;;;;;;;45.58;15.07;;;;;;;17.04;70.24;98415.81;5051310;28;20152;-76
2022/06/21 09:52:30;;;;;;;45.17;15.25;;;;;;;16.96;71.48;98420.28;5044894;28;20045;-76
2022/06/21 09:55:08;;;;;;;51.50;16.00;;;;;;;16.96;71.80;98413.94;5027278;28;20052;-76
2022/06/21 09:57:41;;;;;;;42.13;14.65;;;;;;;16.96;72.41;98417.53;5039952;28;20446;-76
2022/06/21 10:00:12;;;;;;;43.15;15.05;;;;;;;16.97;72.03;98418.31;5052488;28;20095;-76
2022/06/21 10:02:56;;;;;;;50.20;16.45;;;;;;;16.90;73.35;98418.91;5063587;28;20591;-76
2022/06/21 10:05:31;;;;;;;33.30;14.48;;;;;;;16.86;72.61;98420.78;5061887;28;20591;-75
2022/06/21 10:08:15;;;;;;;35.25;14.77;;;;;;;16.92;72.68;98418.59;5060146;28;20415;-76
2022/06/21 10:10:52;;;;;;;37.70;15.45;;;;;;;17.03;72.16;98405.91;5058574;28;20131;-76
2022/06/21 10:13:36;;;;;;;33.10;14.50;;;;;;;17.26;71.34;98408.09;5024144;28;20418;-76
2022/06/21 10:16:22;;;;;;;41.10;14.95;;;;;;;17.35;69.18;98410.69;5039813;28;20049;-76
2022/06/21 10:19:01;;;;;;;40.70;15.83;;;;;;;17.42;68.95;98414.44;5041536;28;20041;-75
2022/06/21 10:21:50;;;;;;;40.92;16.73;;;;;;;17.50;68.49;98420.97;5043734;28;20113;-75
2022/06/21 10:24:51;;;;;;;46.00;16.48;;;;;;;17.55;68.89;98417.13;5052850;28;20135;-75
2022/06/21 10:27:42;;;;;;;44.45;16.00;;;;;;;17.63;68.33;98410.63;5060281;28;20068;-75
2022/06/21 10:30:36;;;;;;;39.28;14.60;;;;;;;17.70;68.00;98423.81;5051065;28;20121;-75
2022/06/21 10:33:20;;;;;;;38.00;14.57;;;;;;;17.64;67.43;98406.72;5057810;28;20495;-76
2022/06/21 10:36:06;;;;;;;49.90;15.38;;;;;;;17.83;66.80;98411.50;5066298;28;20051;-75
2022/06/21 10:38:58;;;;;;;37.20;14.30;;;;;;;17.94;66.21;98413.75;5062409;28;20587;-75
2022/06/21 10:41:37;;;;;;;46.92;15.80;;;;;;;17.95;65.61;98402.34;5045056;28;20504;-76
2022/06/21 10:44:26;;;;;;;41.08;15.52;;;;;;;17.97;65.86;98418.53;5045864;28;20049;-75
2022/06/21 10:46:58;;;;;;;42.83;16.33;;;;;;;17.94;66.19;98410.97;5065990;28;20075;-77
2022/06/21 10:49:41;;;;;;;49.17;16.33;;;;;;;17.95;65.74;98401.53;5064559;28;20052;-76
2022/06/21 10:52:27;;;;;;;46.40;15.98;;;;;;;17.92;64.97;98402.25;5064660;28;20040;-75
2022/06/21 10:55:34;;;;;;;41.97;16.10;;;;;;;17.77;65.00;98396.38;5065064;28;20056;-71
2022/06/21 10:58:11;;;;;;;43.22;15.93;;;;;;;17.67;65.11;98397.72;5047346;28;20052;-70
2022/06/21 11:03:44;;;;;;;39.97;15.60;;;;;;;17.74;65.29;98386.03;5065696;28;20048;-70
2022/06/21 11:06:23;;;;;;;42.05;15.93;;;;;;;17.86;64.87;98385.13;5056910;28;20174;-75
2022/06/21 11:09:02;;;;;;;40.97;15.45;;;;;;;17.97;64.40;98386.19;5044715;28;20048;-75
2022/06/21 11:11:49;;;;;;;49.83;16.30;;;;;;;18.07;64.93;98372.97;5055437;28;20512;-70
2022/06/21 11:14:29;;;;;;;39.80;16.17;;;;;;;18.07;64.67;98375.75;5051003;28;20469;-69
2022/06/21 11:17:06;;;;;;;48.88;17.10;;;;;;;18.09;64.09;98381.72;5028109;28;20045;-69
2022/06/21 11:19:38;;;;;;;;;;;;;;;18.01;63.71;98386.25;5041969;28;20060;-69
2022/06/21 11:22:24;;;;;;;46.95;16.90;;;;;;;17.92;63.80;98386.44;5042362;28;19924;-69
2022/06/21 11:25:01;;;;;;;46.55;18.48;;;;;;;17.85;64.56;98378.78;5050467;28;20044;-75
2022/06/21 11:27:39;;;;;;;58.92;18.90;;;;;;;17.89;65.45;98381.63;5070740;28;20551;-75
2022/06/21 11:30:09;;;;;;;46.30;18.35;;;;;;;17.94;65.35;98381.34;5052171;28;20131;-76
2022/06/21 11:32:42;;;;;;;45.53;18.13;;;;;;;17.83;65.55;98366.50;5057835;28;20266;-75
2022/06/21 11:35:19;;;;;;;44.80;18.50;;;;;;;18.00;65.79;98390.19;5067083;28;20041;-75
2022/06/21 11:37:57;;;;;;;38.53;14.82;;;;;;;18.00;64.98;98393.75;5059445;28;20045;-75
2022/06/21 11:40:38;;;;;;;41.20;13.32;;;;;;;17.90;63.44;98386.00;5052773;28;20053;-75
2022/06/21 11:43:24;;;;;;;38.13;13.98;;;;;;;17.91;63.26;98390.38;5051439;28;20056;-75
2022/06/21 11:45:55;;;;;;;40.22;13.80;;;;;;;17.86;62.85;98388.69;5049191;28;20049;-75
2022/06/21 11:48:44;;;;;;;42.17;15.35;;;;;;;17.86;63.41;98385.91;5052291;28;20510;-75
2022/06/21 11:51:34;;;;;;;37.67;15.50;;;;;;;18.04;63.71;98387.53;5048471;28;20052;-75
2022/06/21 11:54:04;;;;;;;42.45;13.85;;;;;;;18.15;62.97;98385.81;5050253;28;20045;-75
2022/06/21 11:56:39;;;;;;;40.38;12.70;;;;;;;18.22;63.17;98391.50;5051362;28;20049;-75
2022/06/21 11:59:14;;;;;;;32.53;11.27;;;;;;;18.30;62.07;98381.41;5035477;28;20531;-70
2022/06/21 12:01:47;;;;;;;29.90;10.18;;;;;;;18.27;60.62;98382.94;5051490;28;20049;-70
2022/06/21 12:04:22;;;;;;;33.97;10.35;;;;;;;18.26;60.62;98375.00;5052399;28;20052;-70